createdAt,value
2023-05-21T00:02:29.929Z,11.25
2023-05-21T00:04:58.603Z,15.27
2023-05-21T00:07:34.172Z,11.95
2023-05-21T00:10:02.396Z,11.93
2023-05-21T00:12:32.575Z,10.98
2023-05-21T00:15:01.568Z,12.52
2023-05-21T00:17:29.934Z,10.82
2023-05-21T00:19:58.194Z,9.65
2023-05-21T00:22:26.435Z,12.35
2023-05-21T00:24:54.602Z,10.20
2023-05-21T00:27:22.794Z,9.75
2023-05-21T00:29:52.318Z,10.70
2023-05-21T00:32:20.576Z,8.73
2023-05-21T00:34:49.797Z,11.15
2023-05-21T00:37:18.024Z,10.65
2023-05-21T00:39:46.264Z,10.70
2023-05-21T00:42:18.104Z,10.43
2023-05-21T00:44:54.197Z,11.77
2023-05-21T00:47:24.434Z,9.82
2023-05-21T00:49:53.412Z,10.23
2023-05-21T00:52:23.011Z,9.43
2023-05-21T00:54:51.929Z,12.93
2023-05-21T00:57:21.684Z,13.68
2023-05-21T00:59:52.750Z,13.68
2023-05-21T01:02:24.194Z,10.70
2023-05-21T01:04:56.705Z,12.43
2023-05-21T01:07:24.910Z,10.23
2023-05-21T01:09:54.259Z,11.27
2023-05-21T01:12:24.562Z,15.02
2023-05-21T01:14:53.360Z,10.30
2023-05-21T01:17:24.480Z,9.82
2023-05-21T01:19:54.734Z,12.70
2023-05-21T01:22:24.926Z,10.23
2023-05-21T01:24:55.727Z,11.13
2023-05-21T01:27:24.327Z,10.02
2023-05-21T01:29:52.562Z,11.75
2023-05-21T01:32:28.399Z,10.25
2023-05-21T01:38:26.406Z,9.95
2023-05-21T01:41:03.705Z,15.00
2023-05-21T01:43:36.116Z,11.15
2023-05-21T01:46:05.544Z,10.25
2023-05-21T01:48:36.057Z,14.43
2023-05-21T01:51:07.047Z,12.98
2023-05-21T01:53:38.737Z,9.90
2023-05-21T01:56:09.260Z,11.38
2023-05-21T01:58:37.534Z,10.02
2023-05-21T02:01:06.837Z,9.20
2023-05-21T02:03:35.228Z,9.65
2023-05-21T02:06:14.412Z,12.23
2023-05-21T02:08:43.055Z,13.00
2023-05-21T02:11:12.801Z,12.38
2023-05-21T02:13:42.754Z,12.10
2023-05-21T02:16:11.790Z,10.88
2023-05-21T02:18:42.131Z,15.23
2023-05-21T02:21:11.577Z,10.63
2023-05-21T02:23:41.742Z,13.52
2023-05-21T02:26:09.988Z,10.95
2023-05-21T02:28:40.480Z,10.23
2023-05-21T02:31:08.795Z,12.68
2023-05-21T02:33:37.049Z,10.18
2023-05-21T02:36:06.564Z,10.82
2023-05-21T02:38:34.884Z,11.52
2023-05-21T02:41:03.183Z,10.95
2023-05-21T02:43:32.159Z,9.88
2023-05-21T02:46:01.845Z,10.95
2023-05-21T02:48:31.137Z,12.35
2023-05-21T02:51:00.134Z,13.48
2023-05-21T02:53:28.362Z,10.85
2023-05-21T02:55:56.915Z,10.32
2023-05-21T02:58:25.267Z,10.48
2023-05-21T03:00:53.910Z,10.63
2023-05-21T03:03:23.768Z,12.48
2023-05-21T03:05:53.003Z,12.30
2023-05-21T03:08:21.418Z,9.68
2023-05-21T03:10:50.564Z,11.98
2023-05-21T03:13:18.904Z,9.98
2023-05-21T03:15:47.529Z,12.65
2023-05-21T03:18:16.472Z,9.77
2023-05-21T03:20:46.069Z,9.43
2023-05-21T03:23:16.567Z,12.95
2023-05-21T03:25:47.876Z,9.88
2023-05-21T03:28:17.659Z,11.48
2023-05-21T03:30:49.632Z,10.23
2023-05-21T03:33:36.199Z,10.45
2023-05-21T03:36:17.414Z,11.77
2023-05-21T03:38:46.141Z,10.32
2023-05-21T03:41:14.512Z,9.73
2023-05-21T03:43:45.813Z,11.65
2023-05-21T03:46:14.361Z,10.50
2023-05-21T03:48:59.122Z,10.82
2023-05-21T03:51:31.727Z,10.93
2023-05-21T03:54:01.439Z,9.60
2023-05-21T03:56:29.924Z,11.65
2023-05-21T03:58:58.168Z,10.98
2023-05-21T04:01:28.426Z,10.65
2023-05-21T04:03:59.781Z,9.73
2023-05-21T04:06:32.537Z,12.88
2023-05-21T04:09:01.189Z,13.20
2023-05-21T04:11:29.444Z,10.77
2023-05-21T04:13:57.700Z,11.52
2023-05-21T04:16:25.947Z,11.07
2023-05-21T04:18:56.225Z,11.65
2023-05-21T04:21:27.000Z,9.13
2023-05-21T04:23:57.582Z,9.32
2023-05-21T04:26:35.422Z,10.82
2023-05-21T04:29:05.055Z,10.82
2023-05-21T04:31:33.624Z,8.73
2023-05-21T04:34:04.180Z,9.02
2023-05-21T04:36:33.824Z,10.98
2023-05-21T04:39:06.290Z,14.32
2023-05-21T04:41:34.701Z,12.20
2023-05-21T04:44:02.963Z,11.00
2023-05-21T04:46:34.913Z,11.98
2023-05-21T04:49:03.950Z,10.43
2023-05-21T04:51:32.649Z,12.20
2023-05-21T04:54:00.916Z,9.20
2023-05-21T04:56:31.943Z,10.93
2023-05-21T04:59:00.541Z,11.27
2023-05-21T05:01:29.453Z,10.07
2023-05-21T05:03:57.940Z,11.40
2023-05-21T05:06:26.783Z,10.48
2023-05-21T05:08:55.033Z,10.20
2023-05-21T05:11:23.386Z,9.23
2023-05-21T05:13:53.786Z,9.93
2023-05-21T05:16:25.486Z,11.50
2023-05-21T05:18:54.673Z,10.85
2023-05-21T05:21:24.526Z,12.27
2023-05-21T05:23:52.843Z,9.02
2023-05-21T05:26:25.456Z,9.98
2023-05-21T05:28:55.570Z,9.82
2023-05-21T05:31:23.924Z,9.60
2023-05-21T05:33:54.145Z,8.50
2023-05-21T05:36:24.225Z,10.27
2023-05-21T05:38:53.854Z,10.48
2023-05-21T05:41:23.649Z,8.77
2023-05-21T05:43:52.128Z,11.15
2023-05-21T05:46:24.225Z,12.10
2023-05-21T05:48:53.660Z,8.70
2023-05-21T05:51:22.042Z,12.25
2023-05-21T05:53:50.985Z,11.27
2023-05-21T05:56:19.250Z,10.02
2023-05-21T05:58:47.562Z,8.95
2023-05-21T06:01:17.677Z,8.00
2023-05-21T06:03:47.509Z,8.40
2023-05-21T06:06:20.629Z,10.32
2023-05-21T06:08:49.068Z,8.48
2023-05-21T06:11:19.075Z,7.95
2023-05-21T06:13:47.567Z,10.63
2023-05-21T06:16:18.092Z,9.82
2023-05-21T06:18:48.390Z,8.68
2023-05-21T06:21:16.677Z,8.82
2023-05-21T06:23:46.147Z,11.38
2023-05-21T06:26:14.370Z,10.48
2023-05-21T06:28:42.615Z,10.02
2023-05-21T06:31:13.621Z,8.93
2023-05-21T06:33:49.451Z,9.32
2023-05-21T06:36:18.405Z,8.13
2023-05-21T06:38:47.946Z,8.73
2023-05-21T06:41:16.428Z,11.95
2023-05-21T06:43:54.678Z,8.00
2023-05-21T06:46:41.439Z,9.07
2023-05-21T06:49:14.440Z,9.85
2023-05-21T06:51:43.404Z,7.85
2023-05-21T06:54:14.204Z,9.38
2023-05-21T06:56:43.252Z,8.45
2023-05-21T06:59:11.976Z,9.32
2023-05-21T07:01:42.511Z,7.95
2023-05-21T07:04:12.681Z,8.20
2023-05-21T07:06:42.544Z,9.20
2023-05-21T07:09:10.848Z,12.05
2023-05-21T07:11:39.659Z,10.18
2023-05-21T07:14:10.307Z,8.05
2023-05-21T07:16:39.649Z,9.43
2023-05-21T07:19:09.060Z,8.57
2023-05-21T07:21:38.982Z,9.73
2023-05-21T07:24:08.979Z,8.88
2023-05-21T07:26:40.561Z,8.40
2023-05-21T07:29:09.511Z,8.65
2023-05-21T07:31:38.131Z,9.25
2023-05-21T07:34:07.378Z,10.38
2023-05-21T07:36:35.685Z,9.57
2023-05-21T07:39:06.010Z,10.77
2023-05-21T07:41:34.486Z,7.63
2023-05-21T07:44:07.170Z,8.00
2023-05-21T07:46:40.167Z,12.27
2023-05-21T07:49:16.603Z,7.13
2023-05-21T07:51:46.366Z,8.38
2023-05-21T07:54:16.201Z,10.02
2023-05-21T07:56:44.498Z,8.63
2023-05-21T07:59:22.694Z,9.48
2023-05-21T08:01:51.023Z,8.18
2023-05-21T08:04:28.132Z,8.30
2023-05-21T08:06:56.522Z,7.45
2023-05-21T08:09:26.154Z,7.78
2023-05-21T08:11:54.417Z,9.80
2023-05-21T08:14:22.729Z,7.00
2023-05-21T08:16:51.448Z,9.55
2023-05-21T08:19:19.729Z,8.68
2023-05-21T08:21:49.697Z,8.45
2023-05-21T08:24:19.723Z,12.55
2023-05-21T08:26:50.663Z,10.85
2023-05-21T08:29:19.658Z,8.50
2023-05-21T08:31:49.408Z,7.05
2023-05-21T08:34:20.669Z,8.05
2023-05-21T08:36:58.832Z,8.27
2023-05-21T08:39:58.910Z,8.20
2023-05-21T08:42:41.512Z,6.53
2023-05-21T08:45:13.010Z,6.32
2023-05-21T08:47:44.519Z,7.10
2023-05-21T08:50:19.447Z,8.95
2023-05-21T08:52:48.705Z,8.25
2023-05-21T08:55:17.764Z,7.50
2023-05-21T08:57:47.388Z,7.50
2023-05-21T09:00:20.787Z,7.68
2023-05-21T09:02:49.770Z,6.57
2023-05-21T09:05:20.601Z,9.18
2023-05-21T09:08:00.900Z,7.22
2023-05-21T09:10:40.671Z,7.75
2023-05-21T09:13:12.573Z,8.27
2023-05-21T09:15:41.894Z,7.20
2023-05-21T09:18:10.851Z,7.30
2023-05-21T09:20:48.707Z,7.97
2023-05-21T09:23:19.184Z,7.50
2023-05-21T09:25:51.899Z,7.88
2023-05-21T09:28:31.126Z,7.65
2023-05-21T09:31:05.282Z,10.45
2023-05-21T09:33:34.582Z,6.80
2023-05-21T09:36:03.372Z,8.15
2023-05-21T09:38:35.079Z,9.18
2023-05-21T09:41:06.506Z,7.63
2023-05-21T09:43:38.111Z,7.97
2023-05-21T09:46:06.809Z,8.07
2023-05-21T09:48:37.310Z,7.07
2023-05-21T09:51:14.615Z,8.43
2023-05-21T09:53:50.851Z,9.90
2023-05-21T09:56:25.716Z,9.48
2023-05-21T09:58:56.790Z,12.32
2023-05-21T10:01:26.001Z,9.48
2023-05-21T10:04:09.243Z,9.23
2023-05-21T10:06:43.772Z,7.75
2023-05-21T10:09:13.121Z,10.23
2023-05-21T10:11:45.700Z,7.43
2023-05-21T10:14:18.334Z,8.10
2023-05-21T10:16:48.628Z,6.72
2023-05-21T10:19:17.398Z,6.68
2023-05-21T10:21:46.922Z,17.38
2023-05-21T10:24:15.660Z,7.40
2023-05-21T10:26:44.599Z,6.40
2023-05-21T10:29:15.959Z,10.20
2023-05-21T10:31:49.723Z,8.32
2023-05-21T10:34:18.699Z,6.55
2023-05-21T10:36:50.244Z,6.70
2023-05-21T10:39:20.895Z,5.88
2023-05-21T10:42:08.276Z,6.55
2023-05-21T10:44:52.288Z,6.18
2023-05-21T10:47:54.189Z,7.60
2023-05-21T10:51:14.785Z,6.97
2023-05-21T10:54:00.759Z,6.65
2023-05-21T10:56:37.818Z,8.65
2023-05-21T10:59:21.887Z,9.32
2023-05-21T11:01:53.605Z,11.45
2023-05-21T11:04:28.273Z,8.50
2023-05-21T11:06:57.245Z,6.63
2023-05-21T11:09:25.589Z,7.10
2023-05-21T11:11:58.786Z,7.50
2023-05-21T11:14:36.303Z,9.43
2023-05-21T11:17:13.712Z,8.52
2023-05-21T11:19:43.333Z,9.43
2023-05-21T11:22:23.448Z,9.20
2023-05-21T11:24:52.450Z,8.10
2023-05-21T11:27:36.946Z,8.40
2023-05-21T11:30:08.169Z,8.25
2023-05-21T11:32:40.908Z,7.60
2023-05-21T11:35:09.966Z,10.18
2023-05-21T11:37:41.749Z,7.40
2023-05-21T11:40:27.267Z,10.13
2023-05-21T11:42:57.073Z,9.75
2023-05-21T11:45:31.117Z,8.88
2023-05-21T11:48:01.817Z,7.80
2023-05-21T11:50:33.678Z,7.13
2023-05-21T11:53:02.243Z,7.20
2023-05-21T11:55:31.151Z,7.70
2023-05-21T11:58:00.299Z,8.48
2023-05-21T12:00:28.529Z,7.15
2023-05-21T12:02:57.251Z,7.57
2023-05-21T12:05:28.065Z,6.57
2023-05-21T12:07:58.408Z,6.60
2023-05-21T12:10:26.678Z,6.82
2023-05-21T12:12:57.325Z,6.43
2023-05-21T12:15:28.032Z,8.20
2023-05-21T12:17:57.863Z,7.95
2023-05-21T12:20:29.341Z,8.70
2023-05-21T12:23:00.314Z,9.90
2023-05-21T12:25:29.858Z,8.40
2023-05-21T12:27:58.933Z,7.50
2023-05-21T12:30:27.758Z,8.93
2023-05-21T12:33:02.064Z,9.95
2023-05-21T12:35:33.717Z,9.40
2023-05-21T12:38:03.932Z,8.20
2023-05-21T12:40:40.047Z,9.15
2023-05-21T12:43:08.611Z,8.30
2023-05-21T12:45:39.338Z,7.50
2023-05-21T12:50:41.778Z,7.80
2023-05-21T12:53:11.816Z,8.50
2023-05-21T12:55:40.462Z,7.65
2023-05-21T12:58:09.475Z,8.10
2023-05-21T13:00:38.641Z,8.05
2023-05-21T13:03:07.374Z,7.75
2023-05-21T13:05:41.409Z,8.55
2023-05-21T13:08:10.640Z,7.45
2023-05-21T13:10:39.072Z,7.90
2023-05-21T13:13:07.522Z,8.55
2023-05-21T13:15:36.300Z,9.60
2023-05-21T13:18:04.669Z,9.90
2023-05-21T13:20:32.891Z,9.32
2023-05-21T13:23:05.656Z,7.50
2023-05-21T13:25:34.954Z,8.93
2023-05-21T13:28:06.000Z,11.52
2023-05-21T13:30:34.338Z,9.75
2023-05-21T13:33:02.752Z,8.18
2023-05-21T13:35:32.220Z,7.80
2023-05-21T13:38:01.743Z,7.68
2023-05-21T13:40:30.041Z,11.25
2023-05-21T13:42:58.971Z,10.07
2023-05-21T13:45:29.117Z,9.48
2023-05-21T13:47:57.790Z,10.35
2023-05-21T13:50:26.551Z,7.50
2023-05-21T13:52:54.800Z,10.40
2023-05-21T13:55:24.488Z,7.63
2023-05-21T13:57:52.755Z,8.25
2023-05-21T14:00:21.236Z,8.43
2023-05-21T14:02:50.175Z,6.60
2023-05-21T14:05:18.793Z,6.43
2023-05-21T14:07:48.280Z,7.35
2023-05-21T14:10:17.849Z,8.43
2023-05-21T14:12:47.545Z,10.70
2023-05-21T14:15:16.134Z,8.57
2023-05-21T14:17:44.434Z,10.05
2023-05-21T14:20:13.577Z,5.97
2023-05-21T14:22:41.820Z,8.05
2023-05-21T14:25:10.817Z,8.07
2023-05-21T14:27:39.313Z,7.95
2023-05-21T14:30:10.976Z,10.73
2023-05-21T14:32:39.269Z,7.90
2023-05-21T14:35:08.133Z,7.45
2023-05-21T14:37:36.417Z,7.57
2023-05-21T14:40:07.772Z,8.82
2023-05-21T14:42:36.328Z,8.98
2023-05-21T14:45:18.259Z,9.13
2023-05-21T14:47:49.015Z,7.82
2023-05-21T14:50:21.260Z,8.55
2023-05-21T14:52:49.521Z,11.68
2023-05-21T14:55:18.500Z,8.88
2023-05-21T14:57:46.757Z,7.68
2023-05-21T15:00:16.115Z,6.55
2023-05-21T15:02:44.725Z,7.07
2023-05-21T15:05:14.425Z,7.93
2023-05-21T15:07:42.680Z,7.70
2023-05-21T15:10:11.628Z,8.00
2023-05-21T15:12:40.434Z,9.23
2023-05-21T15:15:10.674Z,7.10
2023-05-21T15:17:39.012Z,10.48
2023-05-21T15:20:09.438Z,8.77
2023-05-21T15:22:39.595Z,8.27
2023-05-21T15:25:08.858Z,7.60
2023-05-21T15:27:37.098Z,7.53
2023-05-21T15:30:06.960Z,8.68
2023-05-21T15:32:35.267Z,8.88
2023-05-21T15:35:03.635Z,7.00
2023-05-21T15:37:33.082Z,7.45
2023-05-21T15:40:02.896Z,11.57
2023-05-21T15:42:31.780Z,8.98
2023-05-21T15:45:00.277Z,10.48
2023-05-21T15:47:28.539Z,6.95
2023-05-21T15:49:58.604Z,8.82
2023-05-21T15:52:26.991Z,10.55
2023-05-21T15:54:55.555Z,9.07
2023-05-21T15:57:25.126Z,8.25
2023-05-21T15:59:53.393Z,7.15
2023-05-21T16:02:21.670Z,8.55
2023-05-21T16:04:51.752Z,8.10
2023-05-21T16:07:21.033Z,6.28
2023-05-21T16:09:49.265Z,9.13
2023-05-21T16:12:17.582Z,6.57
2023-05-21T16:14:50.808Z,9.75
2023-05-21T16:17:19.570Z,9.07
2023-05-21T16:19:48.232Z,7.15
2023-05-21T16:22:17.072Z,8.65
2023-05-21T16:24:45.437Z,8.95
2023-05-21T16:27:13.652Z,9.07
2023-05-21T16:29:42.160Z,10.05
2023-05-21T16:32:13.840Z,10.50
2023-05-21T16:34:42.465Z,9.98
2023-05-21T16:37:11.159Z,7.55
2023-05-21T16:39:39.825Z,10.75
2023-05-21T16:42:08.088Z,7.68
2023-05-21T16:44:37.705Z,8.43
2023-05-21T16:47:06.487Z,8.32
2023-05-21T16:49:36.073Z,8.23
2023-05-21T16:52:09.611Z,11.38
2023-05-21T16:54:38.368Z,8.45
2023-05-21T16:57:07.178Z,7.43
2023-05-21T16:59:35.414Z,7.90
2023-05-21T17:02:04.136Z,7.78
2023-05-21T17:04:32.385Z,9.25
2023-05-21T17:07:01.956Z,8.35
2023-05-21T17:09:30.248Z,9.05
2023-05-21T17:11:58.437Z,9.18
2023-05-21T17:14:34.135Z,8.35
2023-05-21T17:17:03.569Z,8.30
2023-05-21T17:19:31.930Z,9.70
2023-05-21T17:22:01.683Z,10.70
2023-05-21T17:24:29.972Z,10.02
2023-05-21T17:26:58.257Z,8.27
2023-05-21T17:29:26.606Z,7.53
2023-05-21T17:31:54.994Z,9.00
2023-05-21T17:34:26.132Z,8.13
2023-05-21T17:36:55.518Z,10.13
2023-05-21T17:39:25.342Z,6.97
2023-05-21T17:41:54.015Z,7.65
2023-05-21T17:44:22.504Z,6.25
2023-05-21T17:46:52.021Z,7.28
2023-05-21T17:49:20.676Z,7.30
2023-05-21T17:51:49.512Z,6.10
2023-05-21T17:54:18.072Z,9.25
2023-05-21T17:56:47.754Z,10.50
2023-05-21T17:59:16.593Z,7.32
2023-05-21T18:01:44.838Z,6.00
2023-05-21T18:04:13.588Z,6.97
2023-05-21T18:06:43.572Z,10.57
2023-05-21T18:09:14.248Z,6.47
2023-05-21T18:11:44.353Z,9.00
2023-05-21T18:14:13.983Z,8.85
2023-05-21T18:16:42.548Z,6.28
2023-05-21T18:19:10.960Z,8.65
2023-05-21T18:21:39.688Z,7.53
2023-05-21T18:24:08.857Z,6.93
2023-05-21T18:26:37.084Z,6.35
2023-05-21T18:29:05.874Z,7.97
2023-05-21T18:31:35.545Z,7.85
2023-05-21T18:34:03.839Z,8.57
2023-05-21T18:36:38.424Z,14.77
2023-05-21T18:39:07.618Z,20.95
2023-05-21T18:41:36.144Z,12.68
2023-05-21T18:44:05.955Z,13.43
2023-05-21T18:46:36.069Z,9.40
2023-05-21T18:49:04.965Z,9.10
2023-05-21T18:51:33.260Z,9.05
2023-05-21T18:54:01.555Z,11.52
2023-05-21T18:56:29.844Z,11.43
2023-05-21T18:58:58.466Z,13.25
2023-05-21T19:01:26.828Z,12.10
2023-05-21T19:03:56.481Z,12.93
2023-05-21T19:06:25.575Z,9.68
2023-05-21T19:08:53.867Z,7.75
2023-05-21T19:11:23.586Z,12.00
2023-05-21T19:13:52.598Z,9.13
2023-05-21T19:16:20.925Z,9.68
2023-05-21T19:18:49.306Z,9.10
2023-05-21T19:21:19.034Z,7.72
2023-05-21T19:23:53.237Z,7.78
2023-05-21T19:26:22.665Z,9.18
2023-05-21T19:28:53.421Z,9.38
2023-05-21T19:31:22.789Z,9.30
2023-05-21T19:33:52.885Z,11.60
2023-05-21T19:36:23.080Z,9.32
2023-05-21T19:38:51.967Z,10.60
2023-05-21T19:41:21.592Z,8.90
2023-05-21T19:43:49.866Z,9.40
2023-05-21T19:46:20.293Z,9.88
2023-05-21T19:48:49.205Z,10.43
2023-05-21T19:51:17.807Z,8.40
2023-05-21T19:53:47.657Z,8.93
2023-05-21T19:56:16.601Z,10.45
2023-05-21T19:58:47.136Z,8.93
2023-05-21T20:01:16.476Z,11.73
2023-05-21T20:03:49.990Z,12.65
2023-05-21T20:06:23.065Z,9.65
2023-05-21T20:08:52.743Z,11.85
2023-05-21T20:11:21.393Z,9.82
2023-05-21T20:13:50.375Z,10.02
2023-05-21T20:16:19.888Z,9.25
2023-05-21T20:18:48.905Z,8.45
2023-05-21T20:21:18.356Z,9.20
2023-05-21T20:23:46.874Z,11.40
2023-05-21T20:26:21.747Z,12.27
2023-05-21T20:28:49.994Z,10.98
2023-05-21T20:31:18.459Z,10.65
2023-05-21T20:33:46.699Z,9.13
2023-05-21T20:36:15.312Z,8.00
2023-05-21T20:38:43.624Z,9.07
2023-05-21T20:41:11.920Z,11.63
2023-05-21T20:43:41.543Z,8.00
2023-05-21T20:46:09.853Z,12.32
2023-05-21T20:48:38.244Z,8.60
2023-05-21T20:51:06.843Z,9.40
2023-05-21T20:53:35.528Z,8.05
2023-05-21T20:56:08.140Z,9.80
2023-05-21T20:58:36.614Z,10.52
2023-05-21T21:01:07.429Z,13.82
2023-05-21T21:03:41.365Z,9.30
2023-05-21T21:06:09.951Z,10.70
2023-05-21T21:08:40.175Z,15.07
2023-05-21T21:11:09.103Z,13.20
2023-05-21T21:13:37.660Z,9.95
2023-05-21T21:16:09.298Z,15.65
2023-05-21T21:18:38.004Z,11.85
2023-05-21T21:21:07.249Z,11.13
2023-05-21T21:23:35.512Z,14.82
2023-05-21T21:26:03.765Z,10.75
2023-05-21T21:28:32.071Z,11.02
2023-05-21T21:31:00.353Z,14.07
2023-05-21T21:33:30.016Z,11.52
2023-05-21T21:36:01.003Z,13.18
2023-05-21T21:38:29.284Z,12.60
2023-05-21T21:40:57.651Z,12.68
2023-05-21T21:43:25.905Z,14.25
2023-05-21T21:45:54.152Z,20.08
2023-05-21T21:48:22.419Z,12.40
2023-05-21T21:50:51.984Z,17.17
2023-05-21T21:53:20.696Z,12.38
2023-05-21T21:55:50.895Z,13.10
2023-05-21T21:58:19.124Z,14.20
2023-05-21T22:00:47.389Z,13.02
2023-05-21T22:03:16.490Z,11.52
2023-05-21T22:05:44.788Z,14.57
2023-05-21T22:08:14.387Z,15.13
2023-05-21T22:10:42.595Z,12.27
2023-05-21T22:13:11.061Z,16.13
2023-05-21T22:15:39.661Z,17.35
2023-05-21T22:18:09.645Z,13.63
2023-05-21T22:20:38.320Z,13.63
2023-05-21T22:23:07.295Z,10.85
2023-05-21T22:25:36.940Z,12.25
2023-05-21T22:28:05.542Z,15.43
2023-05-21T22:30:33.881Z,11.85
2023-05-21T22:33:02.320Z,13.95
2023-05-21T22:35:30.626Z,10.13
2023-05-21T22:37:59.065Z,10.10
2023-05-21T22:40:27.270Z,11.13
2023-05-21T22:42:56.948Z,12.10
2023-05-21T22:45:26.415Z,13.82
2023-05-21T22:47:56.723Z,12.43
2023-05-21T22:50:25.310Z,12.85
2023-05-21T22:52:53.796Z,14.23
2023-05-21T22:55:22.100Z,10.27
2023-05-21T22:57:50.808Z,9.35
2023-05-21T23:00:20.806Z,9.43
2023-05-21T23:02:52.204Z,13.32
2023-05-21T23:05:22.383Z,11.38
2023-05-21T23:07:51.072Z,12.13
2023-05-21T23:10:19.709Z,14.15
2023-05-21T23:12:47.914Z,13.85
2023-05-21T23:15:16.432Z,12.35
2023-05-21T23:17:46.133Z,16.33
2023-05-21T23:20:15.420Z,13.57
2023-05-21T23:22:43.639Z,16.25
2023-05-21T23:25:11.931Z,17.77
2023-05-21T23:27:40.161Z,21.13
2023-05-21T23:30:10.647Z,15.00
2023-05-21T23:32:39.012Z,18.00
2023-05-21T23:35:10.852Z,15.15
2023-05-21T23:37:39.080Z,13.93
2023-05-21T23:40:09.399Z,14.45
2023-05-21T23:42:38.111Z,15.15
2023-05-21T23:45:07.663Z,17.60
2023-05-21T23:47:35.920Z,12.57
2023-05-21T23:50:04.258Z,16.55
2023-05-21T23:52:33.898Z,11.23
2023-05-21T23:55:02.121Z,15.45
2023-05-21T23:57:30.733Z,13.75
2023-05-21T23:59:58.938Z,16.30
